sensor_id;sensor_type;location;lat;lon;timestamp;pressure;altitude;pressure_sealevel;temperature;humidity
31681;BME280;18281;51.364;9.566;2022-12-17T00:00:54;100635.88;;;-10.06;100.00
31681;BME280;18281;51.364;9.566;2022-12-17T00:03:50;100647.75;;;-10.05;100.00
31681;BME280;18281;51.364;9.566;2022-12-17T00:06:37;100640.13;;;-10.05;100.00
31681;BME280;18281;51.364;9.566;2022-12-17T00:09:21;100638.41;;;-10.06;100.00
31681;BME280;18281;51.364;9.566;2022-12-17T00:15:11;100644.34;;;-10.06;100.00
31681;BME280;18281;51.364;9.566;2022-12-17T00:18:05;100653.50;;;-10.09;100.00
31681;BME280;18281;51.364;9.566;2022-12-17T00:20:54;100663.75;;;-10.08;100.00
31681;BME280;18281;51.364;9.566;2022-12-17T00:23:41;100652.72;;;-10.08;100.00
31681;BME280;18281;51.364;9.566;2022-12-17T00:29:32;100663.81;;;-10.06;100.00
31681;BME280;18281;51.364;9.566;2022-12-17T00:32:17;100666.47;;;-10.03;100.00
31681;BME280;18281;51.364;9.566;2022-12-17T00:35:01;100666.28;;;-10.08;100.00
31681;BME280;18281;51.364;9.566;2022-12-17T00:38:03;100672.22;;;-10.07;100.00
31681;BME280;18281;51.364;9.566;2022-12-17T00:40:56;100679.09;;;-10.05;100.00
31681;BME280;18281;51.364;9.566;2022-12-17T00:43:40;100680.69;;;-10.07;100.00
31681;BME280;18281;51.364;9.566;2022-12-17T00:46:24;100680.00;;;-10.02;100.00
31681;BME280;18281;51.364;9.566;2022-12-17T00:49:08;100676.63;;;-10.03;100.00
31681;BME280;18281;51.364;9.566;2022-12-17T00:52:10;100683.44;;;-10.02;100.00
31681;BME280;18281;51.364;9.566;2022-12-17T00:55:11;100674.88;;;-10.04;100.00
31681;BME280;18281;51.364;9.566;2022-12-17T00:57:58;100684.34;;;-10.00;100.00
31681;BME280;18281;51.364;9.566;2022-12-17T01:00:48;100687.94;;;-9.95;100.00
31681;BME280;18281;51.364;9.566;2022-12-17T01:03:32;100687.78;;;-9.99;100.00
31681;BME280;18281;51.364;9.566;2022-12-17T01:06:16;100696.25;;;-9.99;100.00
31681;BME280;18281;51.364;9.566;2022-12-17T01:09:00;100683.53;;;-9.99;100.00
31681;BME280;18281;51.364;9.566;2022-12-17T01:11:44;100694.72;;;-9.95;100.00
31681;BME280;18281;51.364;9.566;2022-12-17T01:14:34;100687.03;;;-9.97;100.00
31681;BME280;18281;51.364;9.566;2022-12-17T01:17:18;100690.31;;;-9.99;100.00
31681;BME280;18281;51.364;9.566;2022-12-17T01:20:03;100695.50;;;-9.96;100.00
31681;BME280;18281;51.364;9.566;2022-12-17T01:22:47;100695.56;;;-9.95;100.00
31681;BME280;18281;51.364;9.566;2022-12-17T01:25:35;100700.63;;;-9.95;100.00
31681;BME280;18281;51.364;9.566;2022-12-17T01:28:20;100704.13;;;-9.93;100.00
31681;BME280;18281;51.364;9.566;2022-12-17T01:31:07;100710.31;;;-9.86;100.00
31681;BME280;18281;51.364;9.566;2022-12-17T01:33:51;100712.84;;;-9.86;100.00
31681;BME280;18281;51.364;9.566;2022-12-17T01:36:38;100715.34;;;-9.88;100.00
31681;BME280;18281;51.364;9.566;2022-12-17T01:39:22;100716.25;;;-9.85;100.00
31681;BME280;18281;51.364;9.566;2022-12-17T01:42:21;100723.94;;;-9.84;100.00
31681;BME280;18281;51.364;9.566;2022-12-17T01:45:12;100721.34;;;-9.85;100.00
31681;BME280;18281;51.364;9.566;2022-12-17T01:48:10;100719.84;;;-9.80;100.00
31681;BME280;18281;51.364;9.566;2022-12-17T01:50:56;100733.28;;;-9.83;100.00
31681;BME280;18281;51.364;9.566;2022-12-17T01:53:45;100734.16;;;-9.82;100.00
31681;BME280;18281;51.364;9.566;2022-12-17T01:56:37;100740.28;;;-9.77;100.00
31681;BME280;18281;51.364;9.566;2022-12-17T01:59:40;100735.94;;;-9.80;100.00
31681;BME280;18281;51.364;9.566;2022-12-17T02:02:25;100738.72;;;-9.74;100.00
31681;BME280;18281;51.364;9.566;2022-12-17T02:05:10;100733.59;;;-9.75;100.00
31681;BME280;18281;51.364;9.566;2022-12-17T02:11:16;100738.53;;;-9.78;100.00
31681;BME280;18281;51.364;9.566;2022-12-17T02:16:57;100743.25;;;-9.66;100.00
31681;BME280;18281;51.364;9.566;2022-12-17T02:25:57;100730.84;;;-9.59;100.00
31681;BME280;18281;51.364;9.566;2022-12-17T02:28:43;100747.28;;;-9.49;100.00
31681;BME280;18281;51.364;9.566;2022-12-17T02:31:32;100746.94;;;-9.58;100.00
31681;BME280;18281;51.364;9.566;2022-12-17T02:34:17;100742.78;;;-9.56;100.00
31681;BME280;18281;51.364;9.566;2022-12-17T02:37:18;100746.31;;;-9.52;100.00
31681;BME280;18281;51.364;9.566;2022-12-17T02:40:09;100751.53;;;-9.49;100.00
31681;BME280;18281;51.364;9.566;2022-12-17T02:42:55;100754.16;;;-9.46;100.00
31681;BME280;18281;51.364;9.566;2022-12-17T02:46:00;100747.59;;;-9.41;100.00
31681;BME280;18281;51.364;9.566;2022-12-17T02:48:44;100750.25;;;-9.38;100.00
31681;BME280;18281;51.364;9.566;2022-12-17T02:51:30;100746.09;;;-9.36;100.00
31681;BME280;18281;51.364;9.566;2022-12-17T02:54:16;100740.72;;;-9.44;100.00
31681;BME280;18281;51.364;9.566;2022-12-17T02:57:01;100744.13;;;-9.43;100.00
31681;BME280;18281;51.364;9.566;2022-12-17T02:59:47;100754.56;;;-9.35;100.00
31681;BME280;18281;51.364;9.566;2022-12-17T03:02:39;100757.31;;;-9.31;100.00
31681;BME280;18281;51.364;9.566;2022-12-17T03:05:33;100758.91;;;-9.33;100.00
31681;BME280;18281;51.364;9.566;2022-12-17T03:08:21;100760.66;;;-9.32;100.00
31681;BME280;18281;51.364;9.566;2022-12-17T03:11:05;100761.59;;;-9.30;100.00
31681;BME280;18281;51.364;9.566;2022-12-17T03:13:49;100764.88;;;-9.32;100.00
31681;BME280;18281;51.364;9.566;2022-12-17T03:16:35;100767.09;;;-9.19;100.00
31681;BME280;18281;51.364;9.566;2022-12-17T03:19:27;100782.03;;;-9.27;100.00
31681;BME280;18281;51.364;9.566;2022-12-17T03:22:11;100775.50;;;-9.20;100.00
31681;BME280;18281;51.364;9.566;2022-12-17T03:24:55;100777.22;;;-9.21;100.00
31681;BME280;18281;51.364;9.566;2022-12-17T03:27:39;100775.75;;;-9.14;100.00
31681;BME280;18281;51.364;9.566;2022-12-17T03:30:25;100783.44;;;-9.12;100.00
31681;BME280;18281;51.364;9.566;2022-12-17T03:33:09;100780.94;;;-9.11;100.00
31681;BME280;18281;51.364;9.566;2022-12-17T03:35:56;100790.59;;;-9.25;100.00
31681;BME280;18281;51.364;9.566;2022-12-17T03:38:58;100798.41;;;-9.20;100.00
31681;BME280;18281;51.364;9.566;2022-12-17T03:41:42;100793.28;;;-9.22;100.00
31681;BME280;18281;51.364;9.566;2022-12-17T03:44:28;100792.84;;;-9.32;100.00
31681;BME280;18281;51.364;9.566;2022-12-17T03:47:12;100792.16;;;-9.28;100.00
31681;BME280;18281;51.364;9.566;2022-12-17T03:50:07;100799.91;;;-9.25;100.00
31681;BME280;18281;51.364;9.566;2022-12-17T03:53:00;100796.63;;;-9.23;100.00
31681;BME280;18281;51.364;9.566;2022-12-17T03:55:54;100794.72;;;-9.28;100.00
31681;BME280;18281;51.364;9.566;2022-12-17T03:58:44;100792.38;;;-9.22;100.00
31681;BME280;18281;51.364;9.566;2022-12-17T04:01:40;100792.31;;;-9.24;100.00
31681;BME280;18281;51.364;9.566;2022-12-17T04:04:24;100800.94;;;-9.20;100.00
31681;BME280;18281;51.364;9.566;2022-12-17T04:07:11;100796.78;;;-9.18;100.00
31681;BME280;18281;51.364;9.566;2022-12-17T04:10:11;100801.25;;;-9.12;100.00
31681;BME280;18281;51.364;9.566;2022-12-17T04:12:57;100809.72;;;-9.12;100.00
31681;BME280;18281;51.364;9.566;2022-12-17T04:15:44;100802.75;;;-9.17;100.00
31681;BME280;18281;51.364;9.566;2022-12-17T04:18:31;100806.72;;;-9.24;100.00
31681;BME280;18281;51.364;9.566;2022-12-17T04:21:15;100803.78;;;-9.12;100.00
31681;BME280;18281;51.364;9.566;2022-12-17T04:23:59;100809.63;;;-9.15;100.00
31681;BME280;18281;51.364;9.566;2022-12-17T04:26:43;100806.91;;;-9.19;100.00
31681;BME280;18281;51.364;9.566;2022-12-17T04:29:27;100805.25;;;-9.19;100.00
31681;BME280;18281;51.364;9.566;2022-12-17T04:32:13;100803.31;;;-9.25;100.00
31681;BME280;18281;51.364;9.566;2022-12-17T04:34:58;100815.22;;;-9.24;100.00
31681;BME280;18281;51.364;9.566;2022-12-17T04:37:44;100821.41;;;-9.17;100.00
31681;BME280;18281;51.364;9.566;2022-12-17T04:40:34;100816.97;;;-9.23;100.00
31681;BME280;18281;51.364;9.566;2022-12-17T04:43:18;100809.22;;;-9.26;100.00
31681;BME280;18281;51.364;9.566;2022-12-17T04:46:02;100805.63;;;-9.31;100.00
31681;BME280;18281;51.364;9.566;2022-12-17T04:48:49;100816.22;;;-9.20;100.00
31681;BME280;18281;51.364;9.566;2022-12-17T04:51:33;100815.59;;;-9.35;100.00
31681;BME280;18281;51.364;9.566;2022-12-17T04:54:22;100816.50;;;-9.35;100.00
31681;BME280;18281;51.364;9.566;2022-12-17T04:57:14;100818.56;;;-9.25;100.00
31681;BME280;18281;51.364;9.566;2022-12-17T05:00:03;100819.34;;;-9.27;100.00
31681;BME280;18281;51.364;9.566;2022-12-17T05:02:47;100822.03;;;-9.23;100.00
31681;BME280;18281;51.364;9.566;2022-12-17T05:05:34;100829.56;;;-9.26;100.00
31681;BME280;18281;51.364;9.566;2022-12-17T05:08:18;100835.72;;;-9.21;100.00
31681;BME280;18281;51.364;9.566;2022-12-17T05:11:02;100835.75;;;-9.19;100.00
31681;BME280;18281;51.364;9.566;2022-12-17T05:13:50;100842.28;;;-9.26;100.00
31681;BME280;18281;51.364;9.566;2022-12-17T05:16:36;100850.03;;;-9.23;100.00
31681;BME280;18281;51.364;9.566;2022-12-17T05:19:22;100847.09;;;-9.11;100.00
31681;BME280;18281;51.364;9.566;2022-12-17T05:22:14;100851.19;;;-9.14;100.00
31681;BME280;18281;51.364;9.566;2022-12-17T05:25:00;100850.50;;;-9.10;100.00
31681;BME280;18281;51.364;9.566;2022-12-17T05:27:47;100853.03;;;-9.10;100.00
31681;BME280;18281;51.364;9.566;2022-12-17T05:30:31;100857.22;;;-9.12;100.00
31681;BME280;18281;51.364;9.566;2022-12-17T05:33:30;100863.16;;;-9.12;100.00
31681;BME280;18281;51.364;9.566;2022-12-17T05:36:14;100867.50;;;-9.09;100.00
31681;BME280;18281;51.364;9.566;2022-12-17T05:38:58;100870.91;;;-9.09;100.00
31681;BME280;18281;51.364;9.566;2022-12-17T05:41:45;100876.88;;;-9.08;100.00
31681;BME280;18281;51.364;9.566;2022-12-17T05:44:29;100882.16;;;-9.25;100.00
31681;BME280;18281;51.364;9.566;2022-12-17T05:47:15;100880.19;;;-9.32;100.00
31681;BME280;18281;51.364;9.566;2022-12-17T05:50:00;100878.00;;;-9.23;100.00
31681;BME280;18281;51.364;9.566;2022-12-17T05:52:46;100879.97;;;-9.15;100.00
31681;BME280;18281;51.364;9.566;2022-12-17T05:55:33;100882.34;;;-9.20;100.00
31681;BME280;18281;51.364;9.566;2022-12-17T05:58:20;100886.50;;;-9.22;100.00
31681;BME280;18281;51.364;9.566;2022-12-17T06:01:04;100890.88;;;-9.18;100.00
31681;BME280;18281;51.364;9.566;2022-12-17T06:03:49;100893.00;;;-9.29;100.00
31681;BME280;18281;51.364;9.566;2022-12-17T06:06:33;100899.94;;;-9.25;100.00
31681;BME280;18281;51.364;9.566;2022-12-17T06:09:20;100907.03;;;-9.17;100.00
31681;BME280;18281;51.364;9.566;2022-12-17T06:12:07;100912.13;;;-9.17;100.00
31681;BME280;18281;51.364;9.566;2022-12-17T06:14:58;100910.50;;;-9.15;100.00
31681;BME280;18281;51.364;9.566;2022-12-17T06:17:57;100901.94;;;-9.17;100.00
31681;BME280;18281;51.364;9.566;2022-12-17T06:20:45;100906.22;;;-9.16;100.00
31681;BME280;18281;51.364;9.566;2022-12-17T06:23:36;100905.19;;;-9.22;100.00
31681;BME280;18281;51.364;9.566;2022-12-17T06:26:28;100912.19;;;-9.16;100.00
31681;BME280;18281;51.364;9.566;2022-12-17T06:32:25;100919.91;;;-9.13;100.00
31681;BME280;18281;51.364;9.566;2022-12-17T06:35:12;100919.69;;;-9.19;100.00
31681;BME280;18281;51.364;9.566;2022-12-17T06:38:04;100932.34;;;-9.21;100.00
31681;BME280;18281;51.364;9.566;2022-12-17T06:41:01;100934.59;;;-9.28;100.00
31681;BME280;18281;51.364;9.566;2022-12-17T06:43:48;100937.81;;;-9.32;100.00
31681;BME280;18281;51.364;9.566;2022-12-17T06:46:37;100942.16;;;-9.30;100.00
31681;BME280;18281;51.364;9.566;2022-12-17T06:56:01;100935.00;;;-9.17;100.00
31681;BME280;18281;51.364;9.566;2022-12-17T06:58:48;100935.81;;;-9.18;100.00
31681;BME280;18281;51.364;9.566;2022-12-17T07:04:35;100951.19;;;-9.15;100.00
31681;BME280;18281;51.364;9.566;2022-12-17T07:07:19;100951.75;;;-9.23;100.00
31681;BME280;18281;51.364;9.566;2022-12-17T07:10:05;100960.75;;;-9.31;100.00
31681;BME280;18281;51.364;9.566;2022-12-17T07:12:52;100969.19;;;-9.32;100.00
31681;BME280;18281;51.364;9.566;2022-12-17T07:18:58;100970.94;;;-9.31;100.00
31681;BME280;18281;51.364;9.566;2022-12-17T07:21:48;100979.41;;;-9.30;100.00
31681;BME280;18281;51.364;9.566;2022-12-17T07:30:56;100982.16;;;-9.26;100.00
31681;BME280;18281;51.364;9.566;2022-12-17T07:36:43;100993.78;;;-6.16;100.00
31681;BME280;18281;51.364;9.566;2022-12-17T07:39:27;101004.94;;;-5.83;100.00
31681;BME280;18281;51.364;9.566;2022-12-17T07:42:11;101015.97;;;-6.44;100.00
31681;BME280;18281;51.364;9.566;2022-12-17T07:44:55;101023.69;;;-6.70;100.00
31681;BME280;18281;51.364;9.566;2022-12-17T07:47:40;101022.44;;;-5.35;100.00
31681;BME280;18281;51.364;9.566;2022-12-17T07:50:23;101019.97;;;-5.32;100.00
31681;BME280;18281;51.364;9.566;2022-12-17T07:53:07;101027.13;;;-5.82;100.00
31681;BME280;18281;51.364;9.566;2022-12-17T07:55:51;101027.16;;;-6.40;100.00
31681;BME280;18281;51.364;9.566;2022-12-17T07:58:35;101034.13;;;-6.89;100.00
31681;BME280;18281;51.364;9.566;2022-12-17T08:01:19;101035.06;;;-7.13;100.00
31681;BME280;18281;51.364;9.566;2022-12-17T08:04:06;101046.00;;;-7.41;100.00
31681;BME280;18281;51.364;9.566;2022-12-17T08:06:50;101060.53;;;-7.63;100.00
31681;BME280;18281;51.364;9.566;2022-12-17T08:09:34;101060.69;;;-7.82;100.00
31681;BME280;18281;51.364;9.566;2022-12-17T08:12:18;101061.06;;;-7.96;100.00
31681;BME280;18281;51.364;9.566;2022-12-17T08:15:03;101060.56;;;-8.08;100.00
31681;BME280;18281;51.364;9.566;2022-12-17T08:17:47;101066.31;;;-8.14;100.00
31681;BME280;18281;51.364;9.566;2022-12-17T08:20:30;101078.19;;;-8.37;100.00
31681;BME280;18281;51.364;9.566;2022-12-17T08:23:14;101071.34;;;-8.38;100.00
31681;BME280;18281;51.364;9.566;2022-12-17T08:26:00;101079.78;;;-8.39;100.00
31681;BME280;18281;51.364;9.566;2022-12-17T08:28:47;101068.00;;;-8.37;100.00
31681;BME280;18281;51.364;9.566;2022-12-17T08:31:31;101077.13;;;-8.42;100.00
31681;BME280;18281;51.364;9.566;2022-12-17T08:34:14;101072.41;;;-8.54;100.00
31681;BME280;18281;51.364;9.566;2022-12-17T08:36:58;101073.34;;;-8.52;100.00
31681;BME280;18281;51.364;9.566;2022-12-17T08:39:42;101082.44;;;-8.59;100.00
31681;BME280;18281;51.364;9.566;2022-12-17T08:42:26;101076.59;;;-8.56;100.00
31681;BME280;18281;51.364;9.566;2022-12-17T08:45:10;101082.53;;;-8.56;100.00
31681;BME280;18281;51.364;9.566;2022-12-17T08:48:14;101086.03;;;-8.54;100.00
31681;BME280;18281;51.364;9.566;2022-12-17T08:51:15;101079.19;;;-8.55;100.00
31681;BME280;18281;51.364;9.566;2022-12-17T08:53:59;101088.47;;;-8.55;100.00
31681;BME280;18281;51.364;9.566;2022-12-17T08:56:42;101088.31;;;-8.60;100.00
31681;BME280;18281;51.364;9.566;2022-12-17T08:59:26;101095.91;;;-8.61;100.00
31681;BME280;18281;51.364;9.566;2022-12-17T09:02:13;101100.84;;;-7.30;100.00
31681;BME280;18281;51.364;9.566;2022-12-17T09:04:57;101113.56;;;-5.40;100.00
31681;BME280;18281;51.364;9.566;2022-12-17T09:07:41;101113.56;;;-4.76;100.00
31681;BME280;18281;51.364;9.566;2022-12-17T09:10:25;101115.63;;;-3.88;100.00
31681;BME280;18281;51.364;9.566;2022-12-17T09:25:23;101112.22;;;-5.88;100.00
31681;BME280;18281;51.364;9.566;2022-12-17T09:28:07;101115.00;;;-6.37;100.00
31681;BME280;18281;51.364;9.566;2022-12-17T09:30:51;101113.50;;;-6.83;100.00
31681;BME280;18281;51.364;9.566;2022-12-17T09:33:34;101116.56;;;-7.17;100.00
31681;BME280;18281;51.364;9.566;2022-12-17T09:36:18;101123.09;;;-7.26;100.00
31681;BME280;18281;51.364;9.566;2022-12-17T09:39:11;101123.47;;;-7.39;100.00
31681;BME280;18281;51.364;9.566;2022-12-17T09:42:04;101127.13;;;-7.55;100.00
31681;BME280;18281;51.364;9.566;2022-12-17T09:44:54;101127.50;;;-7.68;100.00
31681;BME280;18281;51.364;9.566;2022-12-17T09:50:25;101125.59;;;-7.97;100.00
31681;BME280;18281;51.364;9.566;2022-12-17T09:53:20;101119.59;;;-7.97;100.00
31681;BME280;18281;51.364;9.566;2022-12-17T09:56:05;101118.69;;;-7.99;100.00
31681;BME280;18281;51.364;9.566;2022-12-17T09:58:53;101122.94;;;-8.00;100.00
31681;BME280;18281;51.364;9.566;2022-12-17T10:01:40;101123.91;;;-7.96;100.00
31681;BME280;18281;51.364;9.566;2022-12-17T10:07:13;101131.44;;;-7.99;100.00
31681;BME280;18281;51.364;9.566;2022-12-17T10:09:57;101131.50;;;-7.98;100.00
31681;BME280;18281;51.364;9.566;2022-12-17T10:12:44;101136.41;;;-8.02;100.00
31681;BME280;18281;51.364;9.566;2022-12-17T10:15:28;101138.78;;;-8.07;100.00
31681;BME280;18281;51.364;9.566;2022-12-17T10:18:12;101142.31;;;-8.04;100.00
31681;BME280;18281;51.364;9.566;2022-12-17T10:20:58;101130.56;;;-8.00;100.00
31681;BME280;18281;51.364;9.566;2022-12-17T10:23:45;101129.59;;;-8.04;100.00
31681;BME280;18281;51.364;9.566;2022-12-17T10:26:30;101125.34;;;-8.03;100.00
31681;BME280;18281;51.364;9.566;2022-12-17T10:29:15;101126.81;;;-7.87;100.00
31681;BME280;18281;51.364;9.566;2022-12-17T10:32:07;101133.44;;;-7.91;100.00
31681;BME280;18281;51.364;9.566;2022-12-17T10:34:51;101119.09;;;-7.89;100.00
31681;BME280;18281;51.364;9.566;2022-12-17T10:37:34;101124.78;;;-7.96;100.00
31681;BME280;18281;51.364;9.566;2022-12-17T10:40:21;101127.19;;;-7.99;100.00
31681;BME280;18281;51.364;9.566;2022-12-17T10:46:09;101129.03;;;-7.95;100.00
31681;BME280;18281;51.364;9.566;2022-12-17T10:52:25;101130.44;;;-8.03;100.00
31681;BME280;18281;51.364;9.566;2022-12-17T10:55:23;101138.50;;;-7.92;100.00
31681;BME280;18281;51.364;9.566;2022-12-17T10:58:42;101133.44;;;-7.91;100.00
31681;BME280;18281;51.364;9.566;2022-12-17T11:01:20;101135.25;;;-7.88;100.00
31681;BME280;18281;51.364;9.566;2022-12-17T11:04:26;101135.34;;;-7.87;100.00
31681;BME280;18281;51.364;9.566;2022-12-17T11:10:04;101145.53;;;-7.87;100.00
31681;BME280;18281;51.364;9.566;2022-12-17T11:15:37;101141.09;;;-7.91;100.00
31681;BME280;18281;51.364;9.566;2022-12-17T11:18:25;101137.88;;;-7.87;100.00
31681;BME280;18281;51.364;9.566;2022-12-17T11:21:11;101147.25;;;-7.86;100.00
31681;BME280;18281;51.364;9.566;2022-12-17T11:23:58;101146.34;;;-7.88;100.00
31681;BME280;18281;51.364;9.566;2022-12-17T11:26:42;101147.25;;;-7.86;100.00
31681;BME280;18281;51.364;9.566;2022-12-17T11:29:27;101141.88;;;-7.93;100.00
31681;BME280;18281;51.364;9.566;2022-12-17T11:32:19;101144.44;;;-7.93;100.00
31681;BME280;18281;51.364;9.566;2022-12-17T11:35:08;101146.88;;;-7.95;100.00
31681;BME280;18281;51.364;9.566;2022-12-17T11:41:00;101147.88;;;-7.91;100.00
31681;BME280;18281;51.364;9.566;2022-12-17T11:46:39;101134.44;;;-7.87;100.00
31681;BME280;18281;51.364;9.566;2022-12-17T11:52:15;101137.41;;;-7.76;100.00
31681;BME280;18281;51.364;9.566;2022-12-17T11:58:04;101125.13;;;-7.64;100.00
31681;BME280;18281;51.364;9.566;2022-12-17T12:00:53;101129.41;;;-7.63;100.00
31681;BME280;18281;51.364;9.566;2022-12-17T12:03:54;101131.94;;;-7.63;100.00
31681;BME280;18281;51.364;9.566;2022-12-17T12:06:47;101139.72;;;-7.60;100.00
31681;BME280;18281;51.364;9.566;2022-12-17T12:32:51;101126.16;;;-7.34;100.00
31681;BME280;18281;51.364;9.566;2022-12-17T12:35:39;101141.47;;;-7.34;100.00
31681;BME280;18281;51.364;9.566;2022-12-17T12:38:25;101142.47;;;-7.31;100.00
31681;BME280;18281;51.364;9.566;2022-12-17T12:41:17;101145.91;;;-7.30;100.00
31681;BME280;18281;51.364;9.566;2022-12-17T12:44:04;101141.31;;;-7.39;100.00
31681;BME280;18281;51.364;9.566;2022-12-17T12:46:57;101132.22;;;-7.32;100.00
31681;BME280;18281;51.364;9.566;2022-12-17T12:49:55;101141.19;;;-7.20;100.00
31681;BME280;18281;51.364;9.566;2022-12-17T12:52:41;101144.53;;;-7.21;100.00
31681;BME280;18281;51.364;9.566;2022-12-17T12:55:38;101144.69;;;-7.16;100.00
31681;BME280;18281;51.364;9.566;2022-12-17T13:01:06;101143.84;;;-7.16;100.00
31681;BME280;18281;51.364;9.566;2022-12-17T13:03:51;101139.78;;;-7.11;100.00
31681;BME280;18281;51.364;9.566;2022-12-17T13:06:38;101148.94;;;-7.16;100.00
31681;BME280;18281;51.364;9.566;2022-12-17T13:09:50;101146.28;;;-7.20;100.00
31681;BME280;18281;51.364;9.566;2022-12-17T13:12:08;101148.00;;;-7.19;100.00
31681;BME280;18281;51.364;9.566;2022-12-17T13:14:43;101142.84;;;-7.20;100.00
31681;BME280;18281;51.364;9.566;2022-12-17T13:19:40;101140.66;;;-7.09;100.00
31681;BME280;18281;51.364;9.566;2022-12-17T13:24:33;101147.63;;;-7.05;100.00
31681;BME280;18281;51.364;9.566;2022-12-17T13:26:59;101147.75;;;-7.02;100.00
31681;BME280;18281;51.364;9.566;2022-12-17T13:29:28;101150.84;;;-7.11;100.00
31681;BME280;18281;51.364;9.566;2022-12-17T13:34:26;101140.91;;;-7.03;100.00
31681;BME280;18281;51.364;9.566;2022-12-17T13:36:56;101136.41;;;-7.10;100.00
31681;BME280;18281;51.364;9.566;2022-12-17T13:39:37;101153.47;;;-7.08;100.00
31681;BME280;18281;51.364;9.566;2022-12-17T13:42:13;101143.34;;;-7.06;100.00
31681;BME280;18281;51.364;9.566;2022-12-17T13:44:43;101149.84;;;-7.14;100.00
31681;BME280;18281;51.364;9.566;2022-12-17T13:47:31;101161.66;;;-7.18;100.00
31681;BME280;18281;51.364;9.566;2022-12-17T13:49:56;101156.63;;;-7.39;100.00
31681;BME280;18281;51.364;9.566;2022-12-17T13:52:28;101156.72;;;-7.36;100.00
31681;BME280;18281;51.364;9.566;2022-12-17T13:54:53;101155.16;;;-7.32;100.00
31681;BME280;18281;51.364;9.566;2022-12-17T13:57:29;101151.91;;;-7.28;100.00
31681;BME280;18281;51.364;9.566;2022-12-17T13:59:56;101153.00;;;-7.22;100.00
31681;BME280;18281;51.364;9.566;2022-12-17T14:04:51;101156.38;;;-7.23;100.00
31681;BME280;18281;51.364;9.566;2022-12-17T14:07:17;101165.75;;;-7.22;100.00
31681;BME280;18281;51.364;9.566;2022-12-17T14:09:43;101166.41;;;-7.27;100.00
31681;BME280;18281;51.364;9.566;2022-12-17T14:12:09;101161.38;;;-7.26;100.00
31681;BME280;18281;51.364;9.566;2022-12-17T14:17:44;101171.56;;;-7.26;100.00
31681;BME280;18281;51.364;9.566;2022-12-17T14:20:10;101173.31;;;-7.25;100.00
31681;BME280;18281;51.364;9.566;2022-12-17T14:22:38;101169.03;;;-7.26;100.00
31681;BME280;18281;51.364;9.566;2022-12-17T14:25:05;101173.19;;;-7.28;100.00
31681;BME280;18281;51.364;9.566;2022-12-17T14:27:35;101175.75;;;-7.28;100.00
31681;BME280;18281;51.364;9.566;2022-12-17T14:30:18;101172.22;;;-7.31;100.00
31681;BME280;18281;51.364;9.566;2022-12-17T14:32:43;101182.38;;;-7.33;100.00
31681;BME280;18281;51.364;9.566;2022-12-17T14:35:25;101184.69;;;-7.39;100.00
31681;BME280;18281;51.364;9.566;2022-12-17T14:37:51;101178.91;;;-7.35;100.00
31681;BME280;18281;51.364;9.566;2022-12-17T14:40:16;101175.47;;;-7.36;100.00
31681;BME280;18281;51.364;9.566;2022-12-17T14:42:42;101184.00;;;-7.35;100.00
31681;BME280;18281;51.364;9.566;2022-12-17T14:45:21;101175.34;;;-7.39;100.00
31681;BME280;18281;51.364;9.566;2022-12-17T14:47:54;101175.25;;;-7.42;100.00
31681;BME280;18281;51.364;9.566;2022-12-17T14:52:46;101182.75;;;-7.46;100.00
31681;BME280;18281;51.364;9.566;2022-12-17T14:55:29;101193.69;;;-7.49;100.00
31681;BME280;18281;51.364;9.566;2022-12-17T15:01:03;101193.56;;;-7.52;100.00
31681;BME280;18281;51.364;9.566;2022-12-17T15:03:30;101194.41;;;-7.53;100.00
31681;BME280;18281;51.364;9.566;2022-12-17T15:05:59;101189.34;;;-7.51;100.00
31681;BME280;18281;51.364;9.566;2022-12-17T15:08:27;101194.19;;;-7.58;100.00
31681;BME280;18281;51.364;9.566;2022-12-17T15:10:57;101189.00;;;-7.61;100.00
31681;BME280;18281;51.364;9.566;2022-12-17T15:13:22;101191.34;;;-7.65;100.00
31681;BME280;18281;51.364;9.566;2022-12-17T15:15:47;101189.56;;;-7.68;100.00
31681;BME280;18281;51.364;9.566;2022-12-17T15:18:13;101193.75;;;-7.70;100.00
31681;BME280;18281;51.364;9.566;2022-12-17T15:20:38;101196.25;;;-7.72;100.00
31681;BME280;18281;51.364;9.566;2022-12-17T15:23:04;101197.03;;;-7.73;100.00
31681;BME280;18281;51.364;9.566;2022-12-17T15:25:29;101204.63;;;-7.74;100.00
31681;BME280;18281;51.364;9.566;2022-12-17T15:27:54;101205.50;;;-7.74;100.00
31681;BME280;18281;51.364;9.566;2022-12-17T15:30:20;101204.59;;;-7.76;100.00
31681;BME280;18281;51.364;9.566;2022-12-17T15:32:45;101204.38;;;-7.80;100.00
31681;BME280;18281;51.364;9.566;2022-12-17T15:35:11;101209.38;;;-7.83;100.00
31681;BME280;18281;51.364;9.566;2022-12-17T15:37:37;101210.06;;;-7.88;100.00
31681;BME280;18281;51.364;9.566;2022-12-17T15:40:03;101216.06;;;-7.86;100.00
31681;BME280;18281;51.364;9.566;2022-12-17T15:42:28;101213.53;;;-7.86;100.00
31681;BME280;18281;51.364;9.566;2022-12-17T15:45:12;101215.03;;;-7.91;100.00
31681;BME280;18281;51.364;9.566;2022-12-17T15:47:37;101209.00;;;-7.93;100.00
31681;BME280;18281;51.364;9.566;2022-12-17T15:50:03;101205.50;;;-7.95;100.00
31681;BME280;18281;51.364;9.566;2022-12-17T15:52:29;101206.34;;;-7.96;100.00
31681;BME280;18281;51.364;9.566;2022-12-17T15:54:54;101213.00;;;-7.99;100.00
31681;BME280;18281;51.364;9.566;2022-12-17T15:57:19;101211.25;;;-8.00;100.00
31681;BME280;18281;51.364;9.566;2022-12-17T15:59:44;101218.03;;;-8.01;100.00
31681;BME280;18281;51.364;9.566;2022-12-17T16:02:10;101212.94;;;-8.01;100.00
31681;BME280;18281;51.364;9.566;2022-12-17T16:04:35;101215.28;;;-8.06;100.00
31681;BME280;18281;51.364;9.566;2022-12-17T16:07:01;101220.31;;;-8.07;100.00
31681;BME280;18281;51.364;9.566;2022-12-17T16:09:27;101229.66;;;-8.08;100.00
31681;BME280;18281;51.364;9.566;2022-12-17T16:11:53;101227.97;;;-8.07;100.00
31681;BME280;18281;51.364;9.566;2022-12-17T16:14:18;101226.09;;;-8.11;100.00